createdAt,value
2023-03-25T00:00:17.646Z,12.76
2023-03-25T00:02:47.795Z,12.74
2023-03-25T00:05:16.333Z,12.72
2023-03-25T00:07:44.338Z,12.70
2023-03-25T00:10:12.816Z,12.66
2023-03-25T00:12:40.405Z,12.65
2023-03-25T00:15:08.838Z,12.61
2023-03-25T00:17:37.074Z,12.62
2023-03-25T00:20:09.120Z,12.62
2023-03-25T00:22:40.977Z,12.57
2023-03-25T00:25:10.749Z,12.55
2023-03-25T00:27:38.518Z,12.51
2023-03-25T00:30:06.783Z,12.48
2023-03-25T00:32:33.753Z,12.43
2023-03-25T00:35:00.723Z,12.38
2023-03-25T00:37:28.738Z,12.35
2023-03-25T00:39:55.641Z,12.32
2023-03-25T00:42:26.453Z,12.30
2023-03-25T00:44:53.944Z,12.23
2023-03-25T00:47:22.332Z,12.17
2023-03-25T00:49:52.986Z,12.17
2023-03-25T00:52:23.229Z,12.18
2023-03-25T00:54:50.246Z,12.11
2023-03-25T00:57:17.828Z,12.14
2023-03-25T00:59:44.762Z,12.04
2023-03-25T01:02:11.798Z,12.09
2023-03-25T01:04:43.094Z,12.08
2023-03-25T01:07:10.084Z,11.99
2023-03-25T01:09:59.502Z,11.97
2023-03-25T01:12:46.889Z,11.88
2023-03-25T01:15:26.678Z,11.89
2023-03-25T01:18:13.102Z,11.92
2023-03-25T01:20:59.737Z,11.89
2023-03-25T01:23:26.595Z,11.96
2023-03-25T01:25:53.680Z,11.89
2023-03-25T01:28:20.899Z,11.93
2023-03-25T01:30:47.791Z,11.93
2023-03-25T01:33:14.895Z,11.94
2023-03-25T01:35:42.385Z,11.85
2023-03-25T01:38:09.283Z,11.77
2023-03-25T01:40:36.232Z,11.69
2023-03-25T01:43:03.135Z,11.66
2023-03-25T01:45:33.114Z,11.60
2023-03-25T01:48:10.451Z,11.56
2023-03-25T01:50:45.156Z,11.60
2023-03-25T01:53:12.706Z,11.54
2023-03-25T01:55:40.524Z,11.50
2023-03-25T01:58:14.062Z,11.41
2023-03-25T02:00:44.590Z,11.38
2023-03-25T02:03:13.246Z,11.37
2023-03-25T02:05:49.250Z,11.35
2023-03-25T02:08:16.445Z,11.25
2023-03-25T02:11:05.045Z,11.27
2023-03-25T02:14:00.549Z,11.22
2023-03-25T02:16:56.040Z,11.22
2023-03-25T02:20:16.871Z,11.15
2023-03-25T02:23:04.322Z,11.13
2023-03-25T02:26:08.252Z,11.10
2023-03-25T02:29:13.293Z,10.98
2023-03-25T02:31:52.755Z,10.90
2023-03-25T02:34:42.100Z,10.90
2023-03-25T02:37:11.881Z,10.89
2023-03-25T02:39:46.266Z,10.91
2023-03-25T02:42:26.100Z,10.83
2023-03-25T02:44:59.045Z,10.82
2023-03-25T02:47:34.097Z,10.86
2023-03-25T02:50:10.031Z,10.89
2023-03-25T02:52:42.951Z,10.78
2023-03-25T02:55:15.225Z,10.78
2023-03-25T02:57:46.171Z,10.81
2023-03-25T03:00:16.296Z,10.79
2023-03-25T03:03:00.733Z,10.80
2023-03-25T03:05:33.969Z,10.84
2023-03-25T03:08:23.040Z,10.90
2023-03-25T03:10:58.980Z,10.91
2023-03-25T03:14:00.461Z,10.92
2023-03-25T03:16:36.643Z,10.91
2023-03-25T03:19:48.414Z,10.86
2023-03-25T03:22:40.846Z,10.78
2023-03-25T03:25:20.725Z,10.68
2023-03-25T03:27:56.735Z,10.59
2023-03-25T03:30:41.125Z,10.56
2023-03-25T03:33:48.181Z,10.35
2023-03-25T03:36:20.543Z,10.35
2023-03-25T03:38:52.150Z,10.26
2023-03-25T03:41:27.316Z,10.31
2023-03-25T03:44:19.038Z,10.34
2023-03-25T03:46:59.433Z,10.36
2023-03-25T03:49:44.797Z,10.43
2023-03-25T03:52:42.665Z,10.35
2023-03-25T03:55:29.501Z,10.33
2023-03-25T03:58:09.843Z,10.36
2023-03-25T04:01:03.637Z,10.38
2023-03-25T04:03:40.951Z,10.37
2023-03-25T04:06:21.282Z,10.36
2023-03-25T04:09:05.762Z,10.37
2023-03-25T04:11:50.566Z,10.31
2023-03-25T04:14:17.592Z,10.27
2023-03-25T04:16:45.946Z,10.19
2023-03-25T04:19:14.085Z,10.21
2023-03-25T04:21:41.865Z,10.21
2023-03-25T04:24:08.877Z,10.18
2023-03-25T04:26:38.411Z,10.20
2023-03-25T04:29:05.676Z,10.21
2023-03-25T04:31:32.611Z,10.20
2023-03-25T04:34:00.759Z,10.20
2023-03-25T04:36:33.936Z,10.18
2023-03-25T04:39:01.455Z,10.15
2023-03-25T04:41:28.940Z,10.13
2023-03-25T04:43:55.978Z,10.13
2023-03-25T04:46:22.976Z,10.02
2023-03-25T04:48:50.041Z,10.11
2023-03-25T04:51:16.895Z,10.11
2023-03-25T04:53:44.126Z,10.09
2023-03-25T04:56:16.535Z,10.03
2023-03-25T04:58:44.624Z,10.04
2023-03-25T05:01:32.160Z,10.02
2023-03-25T05:04:07.259Z,10.00
2023-03-25T05:06:39.099Z,10.01
2023-03-25T05:09:07.771Z,9.94
2023-03-25T05:11:37.341Z,10.02
2023-03-25T05:14:04.258Z,9.91
2023-03-25T05:16:31.305Z,9.98
2023-03-25T05:18:58.193Z,9.97
2023-03-25T05:21:25.170Z,9.94
2023-03-25T05:23:52.930Z,9.96
2023-03-25T05:26:20.991Z,9.93
2023-03-25T05:28:51.633Z,9.96
2023-03-25T05:31:19.029Z,9.91
2023-03-25T05:33:45.983Z,9.92
2023-03-25T05:36:14.039Z,9.90
2023-03-25T05:38:44.613Z,9.93
2023-03-25T05:41:19.014Z,9.95
2023-03-25T05:43:47.882Z,10.00
2023-03-25T05:46:15.656Z,10.02
2023-03-25T05:48:43.106Z,10.05
2023-03-25T05:51:21.860Z,10.11
2023-03-25T05:53:52.384Z,10.17
2023-03-25T05:56:21.402Z,10.24
2023-03-25T05:58:50.193Z,10.31
2023-03-25T06:01:32.080Z,10.37
2023-03-25T06:04:01.982Z,10.42
2023-03-25T06:06:29.600Z,10.49
2023-03-25T06:08:56.851Z,10.57
2023-03-25T06:11:23.718Z,10.66
2023-03-25T06:13:50.644Z,10.71
2023-03-25T06:16:20.551Z,10.74
2023-03-25T06:18:51.006Z,10.76
2023-03-25T06:21:19.974Z,10.74
2023-03-25T06:23:50.945Z,10.80
2023-03-25T06:26:18.965Z,10.86
2023-03-25T06:28:46.353Z,10.95
2023-03-25T06:31:20.732Z,11.05
2023-03-25T06:33:49.212Z,11.16
2023-03-25T06:36:21.011Z,11.28
2023-03-25T06:38:50.042Z,11.39
2023-03-25T06:41:22.100Z,11.54
2023-03-25T06:43:49.464Z,11.70
2023-03-25T06:46:17.073Z,11.85
2023-03-25T06:48:44.329Z,12.04
2023-03-25T06:51:11.287Z,12.23
2023-03-25T06:53:38.238Z,12.27
2023-03-25T06:56:05.642Z,12.26
2023-03-25T06:58:35.439Z,12.20
2023-03-25T07:01:07.430Z,12.20
2023-03-25T07:03:39.388Z,12.17
2023-03-25T07:06:06.842Z,12.20
2023-03-25T07:08:33.849Z,12.29
2023-03-25T07:11:07.945Z,12.38
2023-03-25T07:13:35.173Z,12.52
2023-03-25T07:16:03.259Z,12.64
2023-03-25T07:18:30.593Z,12.75
2023-03-25T07:20:57.562Z,12.90
2023-03-25T07:23:24.591Z,12.95
2023-03-25T07:25:51.772Z,12.99
2023-03-25T07:28:19.360Z,12.97
2023-03-25T07:30:46.268Z,13.04
2023-03-25T07:33:13.545Z,13.05
2023-03-25T07:35:40.575Z,13.19
2023-03-25T07:38:07.589Z,13.39
2023-03-25T07:40:34.475Z,13.57
2023-03-25T07:43:01.430Z,13.77
2023-03-25T07:45:28.939Z,13.79
2023-03-25T07:47:55.956Z,13.94
2023-03-25T07:50:25.390Z,14.04
2023-03-25T07:52:53.646Z,14.19
2023-03-25T07:55:20.582Z,14.28
2023-03-25T07:57:47.940Z,14.34
2023-03-25T08:00:14.994Z,14.28
2023-03-25T08:02:42.011Z,14.08
2023-03-25T08:05:10.035Z,14.04
2023-03-25T08:07:36.975Z,14.13
2023-03-25T08:10:04.486Z,13.69
2023-03-25T08:12:31.341Z,13.83
2023-03-25T08:15:00.195Z,14.19
2023-03-25T08:17:27.266Z,14.32
2023-03-25T08:19:54.241Z,14.28
2023-03-25T08:22:21.348Z,14.36
2023-03-25T08:24:48.274Z,14.55
2023-03-25T08:27:16.572Z,14.72
2023-03-25T08:29:44.809Z,14.56
2023-03-25T08:32:11.697Z,14.66
2023-03-25T08:34:40.298Z,14.60
2023-03-25T08:37:08.256Z,14.55
2023-03-25T08:39:39.962Z,14.55
2023-03-25T08:42:10.144Z,14.26
2023-03-25T08:44:37.082Z,14.68
2023-03-25T08:47:04.149Z,14.81
2023-03-25T08:49:31.255Z,14.95
2023-03-25T08:51:59.367Z,15.00
2023-03-25T08:54:27.411Z,14.97
2023-03-25T08:56:54.810Z,15.01
2023-03-25T08:59:21.815Z,15.19
2023-03-25T09:01:48.793Z,15.08
2023-03-25T09:04:16.026Z,15.08
2023-03-25T09:06:47.580Z,15.12
2023-03-25T09:09:16.601Z,15.26
2023-03-25T09:11:44.061Z,15.38
2023-03-25T09:14:11.277Z,15.42
2023-03-25T09:16:38.197Z,15.44
2023-03-25T09:19:05.115Z,15.44
2023-03-25T09:21:31.994Z,15.39
2023-03-25T09:23:58.898Z,15.36
2023-03-25T09:26:26.404Z,15.46
2023-03-25T09:28:55.732Z,15.03
2023-03-25T09:31:23.766Z,15.40
2023-03-25T09:33:50.819Z,15.51
2023-03-25T09:36:17.811Z,15.68
2023-03-25T09:38:44.716Z,15.79
2023-03-25T09:41:52.563Z,15.93
2023-03-25T09:44:25.320Z,15.83
2023-03-25T09:46:52.675Z,15.73
2023-03-25T09:49:39.357Z,15.92
2023-03-25T09:52:15.623Z,15.85
2023-03-25T09:54:54.217Z,15.91
2023-03-25T09:57:37.851Z,15.68
2023-03-25T10:00:07.185Z,15.57
2023-03-25T10:02:46.004Z,15.43
2023-03-25T10:05:55.532Z,15.46
2023-03-25T10:08:44.902Z,15.49
2023-03-25T10:11:37.785Z,15.60
2023-03-25T10:14:10.764Z,15.63
2023-03-25T10:17:12.575Z,15.66
2023-03-25T10:19:54.542Z,15.40
2023-03-25T10:22:36.833Z,14.86
2023-03-25T10:25:15.705Z,14.97
2023-03-25T10:27:49.541Z,14.61
2023-03-25T10:30:22.104Z,14.17
2023-03-25T10:32:57.748Z,14.07
2023-03-25T10:35:39.774Z,13.85
2023-03-25T10:38:18.824Z,13.69
2023-03-25T10:41:04.299Z,13.57
2023-03-25T10:43:38.314Z,13.38
2023-03-25T10:46:30.477Z,12.69
2023-03-25T10:48:57.851Z,11.44
2023-03-25T10:51:30.676Z,10.65
2023-03-25T10:53:58.809Z,10.39
2023-03-25T10:56:29.742Z,10.19
2023-03-25T10:58:58.238Z,10.27
2023-03-25T11:01:42.934Z,9.89
2023-03-25T11:04:18.187Z,10.31
2023-03-25T11:06:51.283Z,10.71
2023-03-25T11:09:32.856Z,10.90
2023-03-25T11:12:06.567Z,11.26
2023-03-25T11:14:39.018Z,11.17
2023-03-25T11:17:27.364Z,11.45
2023-03-25T11:20:08.085Z,11.46
2023-03-25T11:22:38.780Z,11.44
2023-03-25T11:25:33.305Z,11.43
2023-03-25T11:28:05.558Z,11.36
2023-03-25T11:30:32.502Z,11.72
2023-03-25T11:33:15.330Z,11.94
2023-03-25T11:35:44.681Z,12.20
2023-03-25T11:38:23.852Z,12.26
2023-03-25T11:40:56.897Z,12.35
2023-03-25T11:43:28.621Z,12.30
2023-03-25T11:45:55.838Z,12.52
2023-03-25T11:48:25.155Z,12.70
2023-03-25T11:50:57.932Z,12.85
2023-03-25T11:53:27.345Z,12.96
2023-03-25T11:56:05.111Z,12.99
2023-03-25T11:58:36.282Z,13.12
2023-03-25T12:01:38.531Z,12.89
2023-03-25T12:04:14.560Z,13.10
2023-03-25T12:06:58.435Z,13.19
2023-03-25T12:09:31.954Z,13.21
2023-03-25T12:12:17.573Z,13.24
2023-03-25T12:14:53.181Z,13.36
2023-03-25T12:17:47.121Z,13.50
2023-03-25T12:20:44.571Z,13.40
2023-03-25T12:23:30.590Z,13.99
2023-03-25T12:26:13.186Z,14.41
2023-03-25T12:28:56.655Z,14.89
2023-03-25T12:31:42.932Z,15.13
2023-03-25T12:34:12.511Z,15.21
2023-03-25T12:36:57.423Z,15.38
2023-03-25T12:39:52.994Z,15.35
2023-03-25T12:42:33.821Z,15.05
2023-03-25T12:45:29.535Z,14.73
2023-03-25T12:48:16.153Z,14.12
2023-03-25T12:50:53.024Z,12.65
2023-03-25T12:53:38.357Z,11.52
2023-03-25T12:56:26.494Z,11.49
2023-03-25T12:59:11.513Z,11.15
2023-03-25T13:02:32.497Z,11.31
2023-03-25T13:05:37.241Z,11.55
2023-03-25T13:08:12.807Z,11.83
2023-03-25T13:10:42.784Z,12.31
2023-03-25T13:13:19.173Z,12.88
2023-03-25T13:15:53.507Z,13.25
2023-03-25T13:18:27.588Z,13.70
2023-03-25T13:21:13.766Z,13.77
2023-03-25T13:23:43.935Z,13.88
2023-03-25T13:26:19.862Z,13.83
2023-03-25T13:29:24.514Z,13.72
2023-03-25T13:31:52.854Z,13.59
2023-03-25T13:34:36.467Z,13.46
2023-03-25T13:37:11.582Z,13.44
2023-03-25T13:40:04.905Z,13.62
2023-03-25T13:42:51.969Z,13.89
2023-03-25T13:45:21.304Z,14.17
2023-03-25T13:47:55.201Z,14.32
2023-03-25T13:50:31.979Z,14.41
2023-03-25T13:53:07.734Z,14.41
2023-03-25T13:55:43.013Z,14.42
2023-03-25T13:58:27.247Z,14.36
2023-03-25T14:01:28.292Z,14.48
2023-03-25T14:04:11.731Z,14.62
2023-03-25T14:06:50.505Z,14.82
2023-03-25T14:09:35.608Z,14.94
2023-03-25T14:12:16.335Z,14.92
2023-03-25T14:15:00.598Z,15.05
2023-03-25T14:17:30.177Z,15.04
2023-03-25T14:19:59.900Z,14.81
2023-03-25T14:22:36.149Z,14.50
2023-03-25T14:25:03.593Z,14.39
2023-03-25T14:27:34.307Z,14.38
2023-03-25T14:30:06.487Z,14.28
2023-03-25T14:32:37.952Z,14.18
2023-03-25T14:35:35.727Z,13.97
2023-03-25T14:38:08.816Z,13.78
2023-03-25T14:40:44.906Z,13.46
2023-03-25T14:43:26.351Z,13.38
2023-03-25T14:46:03.752Z,13.31
2023-03-25T14:48:37.992Z,13.28
2023-03-25T14:51:23.790Z,13.30
2023-03-25T14:54:03.503Z,13.23
2023-03-25T14:56:42.253Z,13.13
2023-03-25T14:59:15.843Z,13.12
2023-03-25T15:01:45.051Z,13.07
2023-03-25T15:04:26.116Z,13.08
2023-03-25T15:06:53.485Z,13.09
2023-03-25T15:09:22.534Z,13.10
2023-03-25T15:12:05.453Z,13.07
2023-03-25T15:14:39.462Z,12.98
2023-03-25T15:17:12.311Z,12.96
2023-03-25T15:20:10.886Z,12.92
2023-03-25T15:22:38.928Z,12.82
2023-03-25T15:25:19.183Z,12.85
2023-03-25T15:28:11.408Z,12.85
2023-03-25T15:30:56.988Z,12.93
2023-03-25T15:33:46.276Z,13.00
2023-03-25T15:36:28.277Z,13.04
2023-03-25T15:39:18.630Z,13.03
2023-03-25T15:42:00.872Z,13.08
2023-03-25T15:44:58.665Z,13.14
2023-03-25T15:47:37.486Z,13.00
2023-03-25T15:50:38.594Z,12.93
2023-03-25T15:53:41.919Z,12.58
2023-03-25T15:56:17.725Z,11.56
2023-03-25T15:58:57.207Z,10.98
2023-03-25T16:01:31.596Z,10.74
2023-03-25T16:04:05.123Z,10.65
2023-03-25T16:06:38.290Z,10.80
2023-03-25T16:09:09.467Z,10.74
2023-03-25T16:11:43.363Z,10.97
2023-03-25T16:14:16.279Z,10.40
2023-03-25T16:16:51.197Z,10.72
2023-03-25T16:19:31.972Z,10.83
2023-03-25T16:22:03.854Z,10.90
2023-03-25T16:24:34.444Z,11.13
2023-03-25T16:27:22.118Z,10.94
2023-03-25T16:29:53.000Z,11.08
2023-03-25T16:32:23.549Z,10.80
2023-03-25T16:34:51.548Z,10.73
2023-03-25T16:37:19.278Z,10.77
2023-03-25T16:39:52.656Z,10.91
2023-03-25T16:42:22.661Z,10.85
2023-03-25T16:44:49.622Z,10.69
2023-03-25T16:47:16.948Z,10.59
2023-03-25T16:49:48.865Z,10.57
2023-03-25T16:52:19.806Z,10.55
2023-03-25T16:54:52.474Z,10.43
2023-03-25T16:57:24.847Z,10.31
2023-03-25T16:59:54.500Z,10.54
2023-03-25T17:02:41.082Z,10.55
2023-03-25T17:05:22.368Z,10.40
2023-03-25T17:08:04.277Z,10.38
2023-03-25T17:10:33.623Z,10.37
2023-03-25T17:13:10.900Z,10.40
2023-03-25T17:15:38.456Z,10.39
2023-03-25T17:18:15.191Z,10.36
2023-03-25T17:20:45.126Z,10.35
2023-03-25T17:23:18.289Z,10.36
2023-03-25T17:26:01.803Z,10.35
2023-03-25T17:28:40.222Z,10.31
2023-03-25T17:31:25.480Z,10.28
2023-03-25T17:33:58.230Z,10.23
2023-03-25T17:36:25.357Z,10.21
2023-03-25T17:38:56.425Z,10.16
2023-03-25T17:41:29.492Z,10.11
2023-03-25T17:43:57.668Z,10.07
2023-03-25T17:46:30.404Z,10.03
2023-03-25T17:48:58.825Z,9.91
2023-03-25T17:51:28.627Z,9.84
2023-03-25T17:53:56.309Z,9.88
2023-03-25T17:56:27.740Z,9.81
2023-03-25T17:59:03.680Z,9.52
2023-03-25T18:01:31.839Z,9.80
2023-03-25T18:03:58.955Z,9.77
2023-03-25T18:06:26.130Z,9.75
2023-03-25T18:08:53.284Z,9.75
2023-03-25T18:11:21.047Z,9.72
2023-03-25T18:13:48.331Z,9.69
2023-03-25T18:16:20.689Z,9.61
2023-03-25T18:18:48.196Z,9.50
2023-03-25T18:21:17.256Z,9.42
2023-03-25T18:23:47.882Z,9.31
2023-03-25T18:26:19.104Z,9.11
2023-03-25T18:28:47.054Z,9.00
2023-03-25T18:31:17.612Z,8.88
2023-03-25T18:33:51.799Z,8.78
2023-03-25T18:36:19.463Z,8.65
2023-03-25T18:38:46.373Z,8.53
2023-03-25T18:41:17.653Z,8.46
2023-03-25T18:43:44.933Z,8.40
2023-03-25T18:46:14.362Z,8.32
2023-03-25T18:48:42.051Z,8.25
2023-03-25T18:51:13.321Z,8.18
2023-03-25T18:53:41.245Z,8.12
2023-03-25T18:56:08.919Z,8.05
2023-03-25T18:58:37.613Z,7.93
2023-03-25T19:01:07.779Z,7.89
2023-03-25T19:03:40.614Z,7.87
2023-03-25T19:06:10.948Z,7.83
2023-03-25T19:08:38.179Z,7.79
2023-03-25T19:11:19.046Z,7.72
2023-03-25T19:13:48.428Z,7.71
2023-03-25T19:16:15.824Z,7.69
2023-03-25T19:18:42.842Z,7.66
2023-03-25T19:21:18.351Z,7.61
2023-03-25T19:23:46.151Z,7.56
2023-03-25T19:26:13.652Z,7.49
2023-03-25T19:28:41.333Z,7.44
2023-03-25T19:31:08.352Z,7.35
2023-03-25T19:33:35.306Z,7.32
2023-03-25T19:36:04.498Z,7.27
2023-03-25T19:38:33.091Z,7.26
2023-03-25T19:41:08.479Z,7.24
2023-03-25T19:43:36.088Z,7.19
2023-03-25T19:46:03.919Z,7.11
2023-03-25T19:48:30.906Z,7.12
2023-03-25T19:50:58.745Z,7.11
2023-03-25T19:53:27.213Z,7.02
2023-03-25T19:55:55.552Z,6.96
2023-03-25T19:58:24.817Z,6.96
2023-03-25T20:00:51.969Z,6.97
2023-03-25T20:03:22.758Z,6.95
2023-03-25T20:05:56.303Z,6.86
2023-03-25T20:08:23.635Z,6.83
2023-03-25T20:10:50.838Z,6.82
2023-03-25T20:13:17.821Z,6.83
2023-03-25T20:15:44.834Z,6.63
2023-03-25T20:18:11.856Z,6.71
2023-03-25T20:20:40.642Z,6.56
2023-03-25T20:23:08.184Z,6.63
2023-03-25T20:25:35.550Z,6.64
2023-03-25T20:28:02.598Z,6.61
2023-03-25T20:30:29.665Z,6.61
2023-03-25T20:32:58.338Z,6.55
2023-03-25T20:35:25.397Z,6.47
2023-03-25T20:37:52.468Z,6.47
2023-03-25T20:40:23.438Z,6.53
2023-03-25T20:42:54.894Z,6.58
2023-03-25T20:45:21.830Z,6.65
2023-03-25T20:47:48.770Z,6.76
2023-03-25T20:50:16.715Z,6.83
2023-03-25T20:52:44.055Z,6.88
2023-03-25T20:55:11.595Z,6.96
2023-03-25T20:57:39.547Z,7.09
2023-03-25T21:00:08.145Z,7.19
2023-03-25T21:02:35.789Z,7.29
2023-03-25T21:05:03.526Z,7.36
2023-03-25T21:07:32.377Z,7.41
2023-03-25T21:09:59.755Z,7.44
2023-03-25T21:12:40.709Z,7.51
2023-03-25T21:15:10.882Z,7.53
2023-03-25T21:17:38.071Z,7.57
2023-03-25T21:20:07.657Z,7.56
2023-03-25T21:22:35.296Z,7.65
2023-03-25T21:25:02.403Z,7.65
2023-03-25T21:27:38.502Z,7.63
2023-03-25T21:30:08.105Z,7.70
2023-03-25T21:32:35.152Z,7.67
2023-03-25T21:35:02.282Z,7.83
2023-03-25T21:37:29.270Z,7.90
2023-03-25T21:39:58.252Z,7.95
2023-03-25T21:42:25.532Z,7.88
2023-03-25T21:44:52.597Z,7.90
2023-03-25T21:47:19.459Z,7.75
2023-03-25T21:49:46.377Z,7.70
2023-03-25T21:52:13.684Z,7.55
2023-03-25T21:54:43.862Z,7.44
2023-03-25T21:57:11.635Z,7.41
2023-03-25T21:59:38.752Z,7.04
2023-03-25T22:02:06.138Z,6.90
2023-03-25T22:04:35.026Z,6.86
2023-03-25T22:07:02.030Z,6.80
2023-03-25T22:09:29.012Z,6.93
2023-03-25T22:11:56.021Z,7.04
2023-03-25T22:14:23.021Z,7.07
2023-03-25T22:16:50.008Z,7.12
2023-03-25T22:19:17.024Z,7.14
2023-03-25T22:21:44.077Z,7.20
2023-03-25T22:24:11.508Z,7.29
2023-03-25T22:26:39.989Z,7.32
2023-03-25T22:29:09.782Z,7.35
2023-03-25T22:31:41.338Z,7.28
2023-03-25T22:34:11.505Z,7.39
2023-03-25T22:36:41.502Z,7.40
2023-03-25T22:39:10.644Z,7.42
2023-03-25T22:41:37.606Z,7.39
2023-03-25T22:44:04.605Z,7.36
2023-03-25T22:46:32.441Z,7.42
2023-03-25T22:48:59.705Z,7.40
2023-03-25T22:51:27.282Z,7.44
2023-03-25T22:53:54.196Z,7.18
2023-03-25T22:56:23.605Z,7.43
2023-03-25T22:58:54.223Z,7.43
2023-03-25T23:01:26.014Z,7.43
2023-03-25T23:03:54.649Z,7.42
2023-03-25T23:06:22.602Z,7.41
2023-03-25T23:08:50.291Z,7.45
2023-03-25T23:11:24.189Z,7.46
2023-03-25T23:14:08.861Z,7.49
2023-03-25T23:16:36.813Z,7.46
2023-03-25T23:19:06.181Z,7.47
2023-03-25T23:21:34.478Z,7.46
2023-03-25T23:24:04.149Z,7.36
2023-03-25T23:26:39.494Z,7.46
2023-03-25T23:29:09.027Z,7.47
2023-03-25T23:31:37.512Z,7.45
2023-03-25T23:34:06.807Z,7.45
2023-03-25T23:36:36.628Z,7.49
2023-03-25T23:39:07.039Z,7.44
2023-03-25T23:41:34.438Z,7.25
2023-03-25T23:44:01.572Z,7.39
2023-03-25T23:46:28.694Z,7.41
2023-03-25T23:48:56.033Z,7.40
2023-03-25T23:51:25.006Z,7.42
2023-03-25T23:53:53.052Z,7.37
2023-03-25T23:56:21.765Z,7.35
2023-03-25T23:58:49.326Z,7.33
